Time;durP1;ratioP1;P1;durP2;ratioP2;P2;SDS_P1;SDS_P2;PMS_P1;PMS_P2;Temp;Humidity;BMP_temperature;BMP_pressure;BME280_temperature;BME280_humidity;BME280_pressure;Samples;Min_cycle;Max_cycle;Signal;HPM_P1;HPM_P2
2022/12/20 00:00:00;;;;;;;0.8;0.8;;;;;;;9.8;100.0;101150;;;;
2022/12/20 00:01:00;;;;;;;0.8;0.8;;;;;;;9.8;100.0;101150;;;;
2022/12/20 00:02:00;;;;;;;0.8;0.8;;;;;;;9.8;100.0;101150;;;;
2022/12/20 00:03:00;;;;;;;0.9;0.9;;;;;;;9.8;100.0;101150;;;;
2022/12/20 00:04:02;;;;;;;0.9;0.9;;;;;;;9.8;100.0;101140;;;;
2022/12/20 00:05:00;;;;;;;0.9;0.9;;;;;;;9.8;100.0;101140;;;;
2022/12/20 00:06:00;;;;;;;0.9;0.9;;;;;;;9.8;100.0;101150;;;;
2022/12/20 00:07:00;;;;;;;0.9;0.9;;;;;;;9.8;100.0;101150;;;;
2022/12/20 00:08:00;;;;;;;0.9;0.9;;;;;;;9.7;100.0;101160;;;;
2022/12/20 00:09:01;;;;;;;0.9;0.9;;;;;;;9.7;100.0;101160;;;;
2022/12/20 00:10:00;;;;;;;0.9;0.9;;;;;;;9.8;100.0;101170;;;;
2022/12/20 00:11:01;;;;;;;0.9;0.9;;;;;;;9.8;100.0;101170;;;;
2022/12/20 00:12:00;;;;;;;0.9;0.9;;;;;;;9.7;100.0;101170;;;;
2022/12/20 00:13:00;;;;;;;0.9;0.9;;;;;;;9.7;100.0;101170;;;;
2022/12/20 00:14:00;;;;;;;0.9;0.9;;;;;;;9.8;100.0;101160;;;;
2022/12/20 00:15:00;;;;;;;0.9;0.9;;;;;;;9.8;100.0;101160;;;;
2022/12/20 00:16:10;;;;;;;0.9;0.9;;;;;;;9.8;100.0;101160;;;;
2022/12/20 00:17:00;;;;;;;0.9;0.9;;;;;;;9.8;100.0;101160;;;;
2022/12/20 00:18:00;;;;;;;0.9;0.9;;;;;;;9.8;100.0;101170;;;;
2022/12/20 00:19:01;;;;;;;0.9;0.9;;;;;;;9.8;100.0;101170;;;;
2022/12/20 00:20:00;;;;;;;0.9;0.9;;;;;;;10.0;100.0;101160;;;;
2022/12/20 00:21:00;;;;;;;0.9;0.9;;;;;;;10.0;100.0;101160;;;;
2022/12/20 00:22:00;;;;;;;0.9;0.9;;;;;;;9.9;100.0;101160;;;;
2022/12/20 00:23:00;;;;;;;0.9;0.9;;;;;;;9.9;100.0;101160;;;;
2022/12/20 00:24:00;;;;;;;0.9;0.9;;;;;;;10.1;100.0;101160;;;;
2022/12/20 00:25:00;;;;;;;0.9;0.9;;;;;;;10.1;100.0;101160;;;;
2022/12/20 00:26:05;;;;;;;0.9;0.9;;;;;;;9.9;100.0;101150;;;;
2022/12/20 00:27:00;;;;;;;0.9;0.9;;;;;;;9.9;100.0;101150;;;;
2022/12/20 00:28:02;;;;;;;0.9;0.9;;;;;;;9.9;100.0;101150;;;;
2022/12/20 00:29:00;;;;;;;0.9;0.9;;;;;;;9.9;100.0;101150;;;;
2022/12/20 00:30:00;;;;;;;0.9;0.9;;;;;;;9.9;100.0;101140;;;;
2022/12/20 00:31:00;;;;;;;0.9;0.9;;;;;;;9.9;100.0;101140;;;;
2022/12/20 00:32:00;;;;;;;0.9;0.9;;;;;;;10.0;100.0;101130;;;;
2022/12/20 00:33:00;;;;;;;0.9;0.9;;;;;;;10.0;100.0;101130;;;;
2022/12/20 00:34:00;;;;;;;0.9;0.9;;;;;;;10.0;100.0;101140;;;;
2022/12/20 00:35:00;;;;;;;0.9;0.9;;;;;;;10.0;100.0;101140;;;;
2022/12/20 00:36:00;;;;;;;0.9;0.9;;;;;;;10.0;100.0;101140;;;;
2022/12/20 00:37:00;;;;;;;0.9;0.9;;;;;;;10.0;100.0;101140;;;;
2022/12/20 00:38:00;;;;;;;0.9;0.9;;;;;;;10.0;100.0;101140;;;;
2022/12/20 00:39:00;;;;;;;0.9;0.9;;;;;;;10.0;100.0;101140;;;;
2022/12/20 00:40:00;;;;;;;0.9;0.9;;;;;;;10.0;100.0;101140;;;;
2022/12/20 00:41:00;;;;;;;0.9;0.9;;;;;;;10.0;100.0;101140;;;;
2022/12/20 00:42:00;;;;;;;0.9;0.9;;;;;;;10.1;100.0;101130;;;;
2022/12/20 00:43:00;;;;;;;0.8;0.8;;;;;;;10.1;100.0;101130;;;;
2022/12/20 00:44:01;;;;;;;0.8;0.8;;;;;;;10.0;100.0;101130;;;;
2022/12/20 00:45:00;;;;;;;0.8;0.8;;;;;;;10.0;100.0;101130;;;;
2022/12/20 00:46:00;;;;;;;0.8;0.8;;;;;;;10.2;100.0;101130;;;;
2022/12/20 00:47:00;;;;;;;0.8;0.8;;;;;;;10.2;100.0;101130;;;;
2022/12/20 00:48:00;;;;;;;0.8;0.8;;;;;;;10.2;100.0;101130;;;;
2022/12/20 00:49:00;;;;;;;0.8;0.8;;;;;;;10.2;100.0;101130;;;;
2022/12/20 00:50:00;;;;;;;0.8;0.8;;;;;;;10.2;100.0;101130;;;;
2022/12/20 00:51:03;;;;;;;0.8;0.8;;;;;;;10.2;100.0;101130;;;;
2022/12/20 00:52:00;;;;;;;0.8;0.8;;;;;;;10.3;100.0;101120;;;;
2022/12/20 00:53:00;;;;;;;0.8;0.8;;;;;;;10.3;100.0;101120;;;;
2022/12/20 00:54:00;;;;;;;0.8;0.8;;;;;;;10.3;100.0;101120;;;;
2022/12/20 00:55:00;;;;;;;0.8;0.8;;;;;;;10.3;100.0;101120;;;;
2022/12/20 00:56:00;;;;;;;0.8;0.8;;;;;;;10.2;100.0;101120;;;;
2022/12/20 00:57:00;;;;;;;0.8;0.8;;;;;;;10.2;100.0;101120;;;;
2022/12/20 00:58:00;;;;;;;0.8;0.8;;;;;;;10.3;100.0;101110;;;;
2022/12/20 00:59:00;;;;;;;0.8;0.8;;;;;;;10.3;100.0;101110;;;;
2022/12/20 01:00:00;;;;;;;0.8;0.8;;;;;;;10.2;100.0;101110;;;;
2022/12/20 01:01:01;;;;;;;0.8;0.8;;;;;;;10.2;100.0;101110;;;;
2022/12/20 01:02:00;;;;;;;0.8;0.8;;;;;;;10.2;100.0;101110;;;;
2022/12/20 01:03:00;;;;;;;0.9;0.9;;;;;;;10.2;100.0;101110;;;;
2022/12/20 01:04:00;;;;;;;0.9;0.9;;;;;;;10.3;100.0;101110;;;;
2022/12/20 01:05:00;;;;;;;0.9;0.9;;;;;;;10.3;100.0;101110;;;;
2022/12/20 01:06:01;;;;;;;0.9;0.9;;;;;;;10.2;100.0;101120;;;;
2022/12/20 01:07:01;;;;;;;0.9;0.9;;;;;;;10.2;100.0;101120;;;;
2022/12/20 01:08:00;;;;;;;0.9;0.9;;;;;;;10.3;100.0;101120;;;;
2022/12/20 01:09:00;;;;;;;0.9;0.9;;;;;;;10.3;100.0;101120;;;;
2022/12/20 01:10:00;;;;;;;0.9;0.9;;;;;;;10.2;100.0;101120;;;;
2022/12/20 01:11:00;;;;;;;0.9;0.9;;;;;;;10.2;100.0;101120;;;;
2022/12/20 01:12:00;;;;;;;0.9;0.9;;;;;;;10.2;100.0;101120;;;;
2022/12/20 01:13:00;;;;;;;0.9;0.9;;;;;;;10.2;100.0;101120;;;;
2022/12/20 01:14:03;;;;;;;0.9;0.9;;;;;;;10.4;100.0;101120;;;;
2022/12/20 01:15:00;;;;;;;0.9;0.9;;;;;;;10.4;100.0;101120;;;;
2022/12/20 01:16:04;;;;;;;0.9;0.9;;;;;;;10.2;100.0;101130;;;;
2022/12/20 01:17:00;;;;;;;0.9;0.9;;;;;;;10.2;100.0;101130;;;;
2022/12/20 01:18:00;;;;;;;0.9;0.9;;;;;;;10.3;100.0;101130;;;;
2022/12/20 01:19:00;;;;;;;0.9;0.9;;;;;;;10.3;100.0;101130;;;;
2022/12/20 01:20:00;;;;;;;0.9;0.9;;;;;;;10.3;100.0;101120;;;;
2022/12/20 01:21:04;;;;;;;0.9;0.9;;;;;;;10.3;100.0;101120;;;;
2022/12/20 01:22:00;;;;;;;0.9;0.9;;;;;;;10.4;100.0;101120;;;;
2022/12/20 01:23:00;;;;;;;0.8;0.8;;;;;;;10.4;100.0;101120;;;;
2022/12/20 01:24:00;;;;;;;0.8;0.8;;;;;;;10.4;100.0;101130;;;;
2022/12/20 01:25:00;;;;;;;0.8;0.8;;;;;;;10.4;100.0;101130;;;;
2022/12/20 01:26:01;;;;;;;0.8;0.8;;;;;;;10.4;100.0;101140;;;;
2022/12/20 01:27:00;;;;;;;0.8;0.8;;;;;;;10.4;100.0;101140;;;;
2022/12/20 01:28:00;;;;;;;0.8;0.8;;;;;;;10.4;100.0;101140;;;;
2022/12/20 01:29:00;;;;;;;0.8;0.8;;;;;;;10.4;100.0;101140;;;;
2022/12/20 01:30:00;;;;;;;0.8;0.8;;;;;;;10.3;100.0;101140;;;;
2022/12/20 01:31:00;;;;;;;0.8;0.8;;;;;;;10.3;100.0;101140;;;;
2022/12/20 01:32:00;;;;;;;0.8;0.8;;;;;;;10.3;100.0;101140;;;;
2022/12/20 01:33:00;;;;;;;0.8;0.8;;;;;;;10.3;100.0;101140;;;;
2022/12/20 01:34:00;;;;;;;0.8;0.8;;;;;;;10.3;100.0;101130;;;;
2022/12/20 01:35:00;;;;;;;0.8;0.8;;;;;;;10.3;100.0;101130;;;;
2022/12/20 01:36:05;;;;;;;0.8;0.8;;;;;;;10.3;100.0;101120;;;;
2022/12/20 01:37:00;;;;;;;0.8;0.8;;;;;;;10.3;100.0;101120;;;;
2022/12/20 01:38:00;;;;;;;0.8;0.8;;;;;;;10.3;100.0;101120;;;;
2022/12/20 01:39:02;;;;;;;0.8;0.8;;;;;;;10.3;100.0;101120;;;;
2022/12/20 01:40:00;;;;;;;0.8;0.8;;;;;;;10.3;100.0;101120;;;;
2022/12/20 01:41:00;;;;;;;0.8;0.8;;;;;;;10.3;100.0;101120;;;;
2022/12/20 01:42:00;;;;;;;0.8;0.8;;;;;;;10.3;100.0;101120;;;;
2022/12/20 01:43:00;;;;;;;1.2;1.2;;;;;;;10.3;100.0;101120;;;;
2022/12/20 01:44:02;;;;;;;1.2;1.2;;;;;;;10.4;100.0;101140;;;;
2022/12/20 01:45:00;;;;;;;1.2;1.2;;;;;;;10.4;100.0;101140;;;;
2022/12/20 01:46:00;;;;;;;1.2;1.2;;;;;;;10.3;100.0;101150;;;;
2022/12/20 01:47:00;;;;;;;1.2;1.2;;;;;;;10.3;100.0;101150;;;;
2022/12/20 01:48:00;;;;;;;1.2;1.2;;;;;;;10.2;100.0;101150;;;;
2022/12/20 01:49:01;;;;;;;1.2;1.2;;;;;;;10.2;100.0;101150;;;;
2022/12/20 01:50:01;;;;;;;1.2;1.2;;;;;;;10.1;100.0;101130;;;;
2022/12/20 01:51:00;;;;;;;1.2;1.2;;;;;;;10.1;100.0;101130;;;;
2022/12/20 01:52:03;;;;;;;1.2;1.2;;;;;;;10.0;100.0;101140;;;;
2022/12/20 01:53:03;;;;;;;1.2;1.2;;;;;;;10.0;100.0;101140;;;;
2022/12/20 01:54:06;;;;;;;1.2;1.2;;;;;;;10.1;100.0;101140;;;;
2022/12/20 01:55:10;;;;;;;1.2;1.2;;;;;;;10.1;100.0;101140;;;;
2022/12/20 01:56:02;;;;;;;1.2;1.2;;;;;;;10.0;100.0;101130;;;;
2022/12/20 01:57:02;;;;;;;1.2;1.2;;;;;;;10.0;100.0;101130;;;;
2022/12/20 01:58:03;;;;;;;1.2;1.2;;;;;;;10.1;100.0;101130;;;;
2022/12/20 01:59:00;;;;;;;1.2;1.2;;;;;;;10.1;100.0;101130;;;;
2022/12/20 02:00:00;;;;;;;1.2;1.2;;;;;;;10.0;100.0;101130;;;;
2022/12/20 02:01:00;;;;;;;1.2;1.2;;;;;;;10.0;100.0;101130;;;;
2022/12/20 02:02:02;;;;;;;1.0;1.0;;;;;;;10.0;100.0;101120;;;;
2022/12/20 02:03:03;;;;;;;1.0;1.0;;;;;;;10.0;100.0;101120;;;;
2022/12/20 02:04:00;;;;;;;1.0;1.0;;;;;;;10.0;100.0;101120;;;;
2022/12/20 02:05:00;;;;;;;1.0;1.0;;;;;;;10.0;100.0;101120;;;;
2022/12/20 02:06:10;;;;;;;1.0;1.0;;;;;;;10.0;100.0;101120;;;;
2022/12/20 02:07:01;;;;;;;1.0;1.0;;;;;;;10.0;100.0;101120;;;;
2022/12/20 02:08:00;;;;;;;1.0;1.0;;;;;;;10.0;100.0;101110;;;;
2022/12/20 02:09:01;;;;;;;1.0;1.0;;;;;;;10.0;100.0;101110;;;;
2022/12/20 02:10:01;;;;;;;1.0;1.0;;;;;;;10.0;100.0;101110;;;;
2022/12/20 02:11:03;;;;;;;1.0;1.0;;;;;;;10.0;100.0;101110;;;;
2022/12/20 02:12:09;;;;;;;1.0;1.0;;;;;;;10.0;100.0;101100;;;;
2022/12/20 02:13:07;;;;;;;1.0;1.0;;;;;;;10.0;100.0;101100;;;;
2022/12/20 02:14:00;;;;;;;1.0;1.0;;;;;;;9.9;100.0;101090;;;;
2022/12/20 02:15:06;;;;;;;1.0;1.0;;;;;;;9.9;100.0;101090;;;;
2022/12/20 02:16:02;;;;;;;1.0;1.0;;;;;;;10.1;100.0;101080;;;;
2022/12/20 02:17:01;;;;;;;1.0;1.0;;;;;;;10.1;100.0;101080;;;;
2022/12/20 02:18:00;;;;;;;1.0;1.0;;;;;;;10.0;100.0;101090;;;;
2022/12/20 02:19:10;;;;;;;1.0;1.0;;;;;;;10.0;100.0;101090;;;;
2022/12/20 02:20:10;;;;;;;1.0;1.0;;;;;;;9.9;100.0;101090;;;;
2022/12/20 02:21:07;;;;;;;1.0;1.0;;;;;;;9.9;100.0;101090;;;;
2022/12/20 02:22:10;;;;;;;1.1;1.1;;;;;;;10.0;100.0;101080;;;;
2022/12/20 02:23:00;;;;;;;1.1;1.1;;;;;;;10.0;100.0;101080;;;;
2022/12/20 02:24:01;;;;;;;1.1;1.1;;;;;;;10.0;100.0;101080;;;;
2022/12/20 02:25:09;;;;;;;1.1;1.1;;;;;;;10.0;100.0;101080;;;;
2022/12/20 02:26:07;;;;;;;1.1;1.1;;;;;;;10.0;100.0;101080;;;;
2022/12/20 02:27:10;;;;;;;1.1;1.1;;;;;;;10.0;100.0;101080;;;;
2022/12/20 02:28:03;;;;;;;1.1;1.1;;;;;;;9.9;100.0;101070;;;;
2022/12/20 02:29:00;;;;;;;1.1;1.1;;;;;;;9.9;100.0;101070;;;;
2022/12/20 02:30:09;;;;;;;1.1;1.1;;;;;;;9.9;100.0;101070;;;;
2022/12/20 02:31:02;;;;;;;1.1;1.1;;;;;;;9.9;100.0;101070;;;;
2022/12/20 02:32:03;;;;;;;1.1;1.1;;;;;;;9.9;100.0;101080;;;;
2022/12/20 02:33:03;;;;;;;1.1;1.1;;;;;;;9.9;100.0;101080;;;;
2022/12/20 02:34:02;;;;;;;1.1;1.1;;;;;;;9.9;100.0;101060;;;;
2022/12/20 02:35:00;;;;;;;1.1;1.1;;;;;;;9.9;100.0;101060;;;;
2022/12/20 02:36:02;;;;;;;1.1;1.1;;;;;;;9.9;100.0;101050;;;;
2022/12/20 02:37:00;;;;;;;1.1;1.1;;;;;;;9.9;100.0;101050;;;;
2022/12/20 02:38:02;;;;;;;1.1;1.1;;;;;;;9.9;100.0;101060;;;;
2022/12/20 02:39:00;;;;;;;1.1;1.1;;;;;;;9.9;100.0;101060;;;;
2022/12/20 02:40:01;;;;;;;1.1;1.1;;;;;;;10.0;100.0;101060;;;;
2022/12/20 02:41:04;;;;;;;1.1;1.1;;;;;;;10.0;100.0;101060;;;;
2022/12/20 02:42:02;;;;;;;0.8;0.8;;;;;;;10.0;100.0;101050;;;;
2022/12/20 02:43:02;;;;;;;0.8;0.8;;;;;;;10.0;100.0;101050;;;;
2022/12/20 02:46:01;;;;;;;0.8;0.8;;;;;;;10.0;100.0;101050;;;;
2022/12/20 02:47:04;;;;;;;0.8;0.8;;;;;;;10.0;100.0;101050;;;;
2022/12/20 02:48:03;;;;;;;0.8;0.8;;;;;;;9.9;100.0;101050;;;;
2022/12/20 02:49:02;;;;;;;0.8;0.8;;;;;;;9.9;100.0;101050;;;;
2022/12/20 02:50:01;;;;;;;0.8;0.8;;;;;;;9.8;100.0;101040;;;;
2022/12/20 02:51:01;;;;;;;0.8;0.8;;;;;;;9.8;100.0;101040;;;;
2022/12/20 02:52:00;;;;;;;0.8;0.8;;;;;;;9.8;100.0;101040;;;;
2022/12/20 02:53:00;;;;;;;0.8;0.8;;;;;;;9.8;100.0;101040;;;;
2022/12/20 02:54:00;;;;;;;0.8;0.8;;;;;;;9.8;100.0;101040;;;;
2022/12/20 02:55:01;;;;;;;0.8;0.8;;;;;;;9.8;100.0;101040;;;;
2022/12/20 02:56:04;;;;;;;0.8;0.8;;;;;;;9.7;100.0;101040;;;;
2022/12/20 02:57:06;;;;;;;0.8;0.8;;;;;;;9.7;100.0;101040;;;;
2022/12/20 02:58:04;;;;;;;0.8;0.8;;;;;;;9.7;100.0;101040;;;;
2022/12/20 02:59:05;;;;;;;0.8;0.8;;;;;;;9.7;100.0;101040;;;;
2022/12/20 03:00:04;;;;;;;0.8;0.8;;;;;;;9.7;100.0;101040;;;;
2022/12/20 03:01:03;;;;;;;0.8;0.8;;;;;;;9.7;100.0;101040;;;;
2022/12/20 03:02:01;;;;;;;0.8;0.8;;;;;;;9.7;100.0;101030;;;;
2022/12/20 03:04:00;;;;;;;0.8;0.8;;;;;;;9.8;100.0;101030;;;;
2022/12/20 03:05:00;;;;;;;0.8;0.8;;;;;;;9.8;100.0;101030;;;;
2022/12/20 03:06:00;;;;;;;0.8;0.8;;;;;;;9.8;100.0;101030;;;;
2022/12/20 03:07:00;;;;;;;0.8;0.8;;;;;;;9.8;100.0;101030;;;;
2022/12/20 03:08:00;;;;;;;0.8;0.8;;;;;;;9.8;100.0;101040;;;;
2022/12/20 03:09:00;;;;;;;0.8;0.8;;;;;;;9.8;100.0;101040;;;;
2022/12/20 03:10:00;;;;;;;0.8;0.8;;;;;;;9.9;100.0;101040;;;;
2022/12/20 03:11:00;;;;;;;0.8;0.8;;;;;;;9.9;100.0;101040;;;;
2022/12/20 03:12:00;;;;;;;0.8;0.8;;;;;;;9.8;100.0;101040;;;;
2022/12/20 03:13:00;;;;;;;0.8;0.8;;;;;;;9.8;100.0;101040;;;;
2022/12/20 03:14:00;;;;;;;0.8;0.8;;;;;;;9.8;100.0;101040;;;;
2022/12/20 03:15:00;;;;;;;0.8;0.8;;;;;;;9.8;100.0;101040;;;;
2022/12/20 03:16:00;;;;;;;0.8;0.8;;;;;;;9.8;100.0;101040;;;;
2022/12/20 03:17:01;;;;;;;0.8;0.8;;;;;;;9.8;100.0;101040;;;;
2022/12/20 03:18:00;;;;;;;0.8;0.8;;;;;;;9.8;100.0;101040;;;;
2022/12/20 03:19:00;;;;;;;0.8;0.8;;;;;;;9.8;100.0;101040;;;;
2022/12/20 03:20:00;;;;;;;0.8;0.8;;;;;;;9.8;100.0;101050;;;;
2022/12/20 03:21:00;;;;;;;0.8;0.8;;;;;;;9.8;100.0;101050;;;;
2022/12/20 03:22:00;;;;;;;0.9;0.9;;;;;;;9.9;100.0;101040;;;;
2022/12/20 03:23:00;;;;;;;0.9;0.9;;;;;;;9.9;100.0;101040;;;;
2022/12/20 03:24:00;;;;;;;0.9;0.9;;;;;;;9.9;100.0;101050;;;;
2022/12/20 03:25:00;;;;;;;0.9;0.9;;;;;;;9.9;100.0;101050;;;;
2022/12/20 03:26:00;;;;;;;0.9;0.9;;;;;;;9.9;100.0;101030;;;;
2022/12/20 03:27:00;;;;;;;0.9;0.9;;;;;;;9.9;100.0;101030;;;;
2022/12/20 03:28:00;;;;;;;0.9;0.9;;;;;;;9.9;100.0;101040;;;;
2022/12/20 03:29:00;;;;;;;0.9;0.9;;;;;;;9.9;100.0;101040;;;;
2022/12/20 03:30:00;;;;;;;0.9;0.9;;;;;;;9.9;100.0;101040;;;;
2022/12/20 03:31:00;;;;;;;0.9;0.9;;;;;;;9.9;100.0;101040;;;;
2022/12/20 03:32:00;;;;;;;0.9;0.9;;;;;;;9.9;100.0;101040;;;;
2022/12/20 03:33:00;;;;;;;0.9;0.9;;;;;;;9.9;100.0;101040;;;;
2022/12/20 03:34:00;;;;;;;0.9;0.9;;;;;;;9.9;100.0;101040;;;;
2022/12/20 03:35:00;;;;;;;0.9;0.9;;;;;;;9.9;100.0;101040;;;;
2022/12/20 03:36:00;;;;;;;0.9;0.9;;;;;;;9.9;100.0;101040;;;;
2022/12/20 03:37:00;;;;;;;0.9;0.9;;;;;;;9.9;100.0;101040;;;;
2022/12/20 03:38:00;;;;;;;0.9;0.9;;;;;;;10.0;100.0;101030;;;;
2022/12/20 03:39:00;;;;;;;0.9;0.9;;;;;;;10.0;100.0;101030;;;;
2022/12/20 03:40:00;;;;;;;0.9;0.9;;;;;;;9.9;100.0;101030;;;;
2022/12/20 03:41:00;;;;;;;0.9;0.9;;;;;;;9.9;100.0;101030;;;;
2022/12/20 03:42:00;;;;;;;0.9;0.9;;;;;;;10.0;100.0;101020;;;;
2022/12/20 03:43:00;;;;;;;0.9;0.9;;;;;;;10.0;100.0;101020;;;;
2022/12/20 03:44:00;;;;;;;0.9;0.9;;;;;;;10.1;100.0;101020;;;;
2022/12/20 03:45:00;;;;;;;0.9;0.9;;;;;;;10.1;100.0;101020;;;;
2022/12/20 03:46:00;;;;;;;0.9;0.9;;;;;;;10.1;100.0;101030;;;;
2022/12/20 03:47:00;;;;;;;0.9;0.9;;;;;;;10.1;100.0;101030;;;;
2022/12/20 03:48:00;;;;;;;0.9;0.9;;;;;;;10.1;100.0;101030;;;;
2022/12/20 03:49:00;;;;;;;0.9;0.9;;;;;;;10.1;100.0;101030;;;;
2022/12/20 03:50:00;;;;;;;0.9;0.9;;;;;;;10.1;100.0;101030;;;;
2022/12/20 03:51:00;;;;;;;0.9;0.9;;;;;;;10.1;100.0;101030;;;;
2022/12/20 03:52:00;;;;;;;0.9;0.9;;;;;;;10.2;100.0;101030;;;;
2022/12/20 03:53:00;;;;;;;0.9;0.9;;;;;;;10.2;100.0;101030;;;;
2022/12/20 03:54:00;;;;;;;0.9;0.9;;;;;;;10.2;100.0;101040;;;;
2022/12/20 03:55:00;;;;;;;0.9;0.9;;;;;;;10.2;100.0;101040;;;;
2022/12/20 03:56:00;;;;;;;0.9;0.9;;;;;;;10.1;100.0;101040;;;;
2022/12/20 03:57:00;;;;;;;0.9;0.9;;;;;;;10.1;100.0;101040;;;;
2022/12/20 03:58:00;;;;;;;0.9;0.9;;;;;;;10.1;100.0;101050;;;;
2022/12/20 03:59:00;;;;;;;0.9;0.9;;;;;;;10.1;100.0;101050;;;;
2022/12/20 04:00:00;;;;;;;0.9;0.9;;;;;;;10.2;100.0;101050;;;;
2022/12/20 04:01:00;;;;;;;0.9;0.9;;;;;;;10.2;100.0;101050;;;;
2022/12/20 04:02:01;;;;;;;0.9;0.9;;;;;;;10.2;100.0;101050;;;;
2022/12/20 04:03:00;;;;;;;0.9;0.9;;;;;;;10.2;100.0;101050;;;;
2022/12/20 04:04:00;;;;;;;0.9;0.9;;;;;;;10.2;100.0;101040;;;;
2022/12/20 04:05:00;;;;;;;0.9;0.9;;;;;;;10.2;100.0;101040;;;;
2022/12/20 04:06:00;;;;;;;0.9;0.9;;;;;;;10.3;100.0;101030;;;;
2022/12/20 04:07:00;;;;;;;0.9;0.9;;;;;;;10.3;100.0;101030;;;;
2022/12/20 04:08:00;;;;;;;0.9;0.9;;;;;;;10.3;100.0;101030;;;;
2022/12/20 04:09:00;;;;;;;0.9;0.9;;;;;;;10.3;100.0;101030;;;;
2022/12/20 04:10:00;;;;;;;0.9;0.9;;;;;;;10.3;100.0;101020;;;;
2022/12/20 04:12:00;;;;;;;0.9;0.9;;;;;;;10.3;100.0;101020;;;;
2022/12/20 04:13:00;;;;;;;0.9;0.9;;;;;;;10.3;100.0;101020;;;;
2022/12/20 04:14:00;;;;;;;0.9;0.9;;;;;;;10.4;100.0;101020;;;;
2022/12/20 04:15:00;;;;;;;0.9;0.9;;;;;;;10.4;100.0;101020;;;;
2022/12/20 04:16:01;;;;;;;0.9;0.9;;;;;;;10.4;100.0;101020;;;;
2022/12/20 04:17:00;;;;;;;0.9;0.9;;;;;;;10.4;100.0;101020;;;;
2022/12/20 04:18:00;;;;;;;0.9;0.9;;;;;;;10.4;100.0;101020;;;;
2022/12/20 04:19:00;;;;;;;0.9;0.9;;;;;;;10.4;100.0;101020;;;;
2022/12/20 04:20:17;;;;;;;0.9;0.9;;;;;;;10.4;100.0;101020;;;;
2022/12/20 04:21:00;;;;;;;0.9;0.9;;;;;;;10.4;100.0;101020;;;;
2022/12/20 04:22:06;;;;;;;0.8;0.8;;;;;;;10.4;100.0;101020;;;;
2022/12/20 04:23:00;;;;;;;0.8;0.8;;;;;;;10.4;100.0;101020;;;;
2022/12/20 04:24:01;;;;;;;0.8;0.8;;;;;;;10.5;100.0;101020;;;;
2022/12/20 04:25:00;;;;;;;0.8;0.8;;;;;;;10.5;100.0;101020;;;;
2022/12/20 04:26:00;;;;;;;0.8;0.8;;;;;;;10.4;100.0;101020;;;;
2022/12/20 04:27:00;;;;;;;0.8;0.8;;;;;;;10.4;100.0;101020;;;;
2022/12/20 04:28:00;;;;;;;0.8;0.8;;;;;;;10.5;100.0;101020;;;;
2022/12/20 04:29:00;;;;;;;0.8;0.8;;;;;;;10.5;100.0;101020;;;;
2022/12/20 04:30:00;;;;;;;0.8;0.8;;;;;;;10.4;100.0;101020;;;;
2022/12/20 04:31:01;;;;;;;0.8;0.8;;;;;;;10.4;100.0;101020;;;;
2022/12/20 04:32:00;;;;;;;0.8;0.8;;;;;;;10.5;100.0;101020;;;;
2022/12/20 04:33:00;;;;;;;0.8;0.8;;;;;;;10.5;100.0;101020;;;;
2022/12/20 04:34:00;;;;;;;0.8;0.8;;;;;;;10.5;100.0;101010;;;;
2022/12/20 04:35:00;;;;;;;0.8;0.8;;;;;;;10.5;100.0;101010;;;;
2022/12/20 04:36:00;;;;;;;0.8;0.8;;;;;;;10.5;100.0;101020;;;;
2022/12/20 04:37:00;;;;;;;0.8;0.8;;;;;;;10.5;100.0;101020;;;;
2022/12/20 04:38:00;;;;;;;0.8;0.8;;;;;;;10.5;100.0;101020;;;;
2022/12/20 04:39:00;;;;;;;0.8;0.8;;;;;;;10.5;100.0;101020;;;;
2022/12/20 04:40:00;;;;;;;0.8;0.8;;;;;;;10.6;100.0;101020;;;;
2022/12/20 04:41:00;;;;;;;0.8;0.8;;;;;;;10.6;100.0;101020;;;;
2022/12/20 04:42:00;;;;;;;0.8;0.8;;;;;;;10.6;100.0;101020;;;;
2022/12/20 04:43:00;;;;;;;0.8;0.8;;;;;;;10.6;100.0;101020;;;;
2022/12/20 04:44:00;;;;;;;0.8;0.8;;;;;;;10.6;100.0;101020;;;;
2022/12/20 04:45:00;;;;;;;0.8;0.8;;;;;;;10.6;100.0;101020;;;;
2022/12/20 04:46:00;;;;;;;0.8;0.8;;;;;;;10.6;100.0;101020;;;;
2022/12/20 04:47:00;;;;;;;0.8;0.8;;;;;;;10.6;100.0;101020;;;;
2022/12/20 04:48:10;;;;;;;0.8;0.8;;;;;;;10.6;100.0;101010;;;;
2022/12/20 04:49:00;;;;;;;0.8;0.8;;;;;;;10.6;100.0;101010;;;;
2022/12/20 04:50:00;;;;;;;0.8;0.8;;;;;;;10.5;100.0;101010;;;;
2022/12/20 04:51:00;;;;;;;0.8;0.8;;;;;;;10.5;100.0;101010;;;;
2022/12/20 04:53:46;;;;;;;0.8;0.8;;;;;;;10.5;100.0;101010;;;;
2022/12/20 04:54:00;;;;;;;0.8;0.8;;;;;;;10.5;100.0;101010;;;;
2022/12/20 04:55:00;;;;;;;0.8;0.8;;;;;;;10.5;100.0;101010;;;;
2022/12/20 04:56:00;;;;;;;0.8;0.8;;;;;;;10.5;100.0;101010;;;;
2022/12/20 04:57:00;;;;;;;0.8;0.8;;;;;;;10.5;100.0;101010;;;;
2022/12/20 04:58:07;;;;;;;0.8;0.8;;;;;;;10.6;100.0;101010;;;;
2022/12/20 04:59:01;;;;;;;0.8;0.8;;;;;;;10.6;100.0;101010;;;;
2022/12/20 05:00:00;;;;;;;0.8;0.8;;;;;;;10.7;100.0;101010;;;;
2022/12/20 05:01:00;;;;;;;0.8;0.8;;;;;;;10.7;100.0;101010;;;;
2022/12/20 05:02:00;;;;;;;0.7;0.7;;;;;;;10.8;100.0;101010;;;;
2022/12/20 05:03:00;;;;;;;0.7;0.7;;;;;;;10.8;100.0;101010;;;;
2022/12/20 05:04:01;;;;;;;0.7;0.7;;;;;;;10.6;100.0;101000;;;;
2022/12/20 05:05:00;;;;;;;0.7;0.7;;;;;;;10.6;100.0;101000;;;;
2022/12/20 05:06:00;;;;;;;0.7;0.7;;;;;;;10.6;100.0;101000;;;;
2022/12/20 05:07:00;;;;;;;0.7;0.7;;;;;;;10.6;100.0;101000;;;;
2022/12/20 05:08:00;;;;;;;0.7;0.7;;;;;;;10.5;100.0;101000;;;;
2022/12/20 05:09:00;;;;;;;0.7;0.7;;;;;;;10.5;100.0;101000;;;;
2022/12/20 05:10:00;;;;;;;0.7;0.7;;;;;;;10.6;100.0;101000;;;;
2022/12/20 05:11:00;;;;;;;0.7;0.7;;;;;;;10.6;100.0;101000;;;;
2022/12/20 05:12:00;;;;;;;0.7;0.7;;;;;;;10.6;100.0;101000;;;;
2022/12/20 05:13:08;;;;;;;0.7;0.7;;;;;;;10.6;100.0;101000;;;;
2022/12/20 05:14:00;;;;;;;0.7;0.7;;;;;;;10.6;100.0;101000;;;;
2022/12/20 05:15:00;;;;;;;0.7;0.7;;;;;;;10.6;100.0;101000;;;;
2022/12/20 05:16:00;;;;;;;0.7;0.7;;;;;;;10.6;100.0;101000;;;;
2022/12/20 05:17:00;;;;;;;0.7;0.7;;;;;;;10.6;100.0;101000;;;;
2022/12/20 05:18:00;;;;;;;0.7;0.7;;;;;;;10.6;100.0;101000;;;;
2022/12/20 05:19:02;;;;;;;0.7;0.7;;;;;;;10.6;100.0;101000;;;;
2022/12/20 05:20:00;;;;;;;0.7;0.7;;;;;;;10.7;100.0;100990;;;;
2022/12/20 05:27:00;;;;;;;0.9;0.9;;;;;;;10.7;100.0;100970;;;;
2022/12/20 05:28:00;;;;;;;0.9;0.9;;;;;;;10.7;100.0;100970;;;;
2022/12/20 05:29:00;;;;;;;0.9;0.9;;;;;;;10.7;100.0;100970;;;;
2022/12/20 05:30:00;;;;;;;0.9;0.9;;;;;;;10.7;100.0;100970;;;;
2022/12/20 05:31:00;;;;;;;0.9;0.9;;;;;;;10.7;100.0;100970;;;;
2022/12/20 05:32:00;;;;;;;0.9;0.9;;;;;;;10.8;100.0;100970;;;;
2022/12/20 05:33:00;;;;;;;0.9;0.9;;;;;;;10.8;100.0;100970;;;;
2022/12/20 05:34:00;;;;;;;0.9;0.9;;;;;;;10.7;100.0;100960;;;;
2022/12/20 05:35:00;;;;;;;0.9;0.9;;;;;;;10.7;100.0;100960;;;;
2022/12/20 05:36:00;;;;;;;0.9;0.9;;;;;;;10.7;100.0;100970;;;;
2022/12/20 05:37:00;;;;;;;0.9;0.9;;;;;;;10.7;100.0;100970;;;;
2022/12/20 05:38:01;;;;;;;0.9;0.9;;;;;;;10.7;100.0;100960;;;;
2022/12/20 05:39:05;;;;;;;0.9;0.9;;;;;;;10.7;100.0;100960;;;;
2022/12/20 05:40:00;;;;;;;0.9;0.9;;;;;;;10.7;100.0;100960;;;;
2022/12/20 05:41:00;;;;;;;0.9;0.9;;;;;;;10.7;100.0;100960;;;;
2022/12/20 05:42:00;;;;;;;0.7;0.7;;;;;;;10.8;100.0;100970;;;;
2022/12/20 05:43:01;;;;;;;0.7;0.7;;;;;;;10.8;100.0;100970;;;;
2022/12/20 05:44:00;;;;;;;0.7;0.7;;;;;;;10.7;100.0;100960;;;;
2022/12/20 05:45:00;;;;;;;0.7;0.7;;;;;;;10.7;100.0;100960;;;;
2022/12/20 05:46:00;;;;;;;0.7;0.7;;;;;;;10.8;100.0;100960;;;;
2022/12/20 05:47:00;;;;;;;0.7;0.7;;;;;;;10.8;100.0;100960;;;;
2022/12/20 05:48:00;;;;;;;0.7;0.7;;;;;;;10.8;100.0;100960;;;;
2022/12/20 05:49:00;;;;;;;0.7;0.7;;;;;;;10.8;100.0;100960;;;;
2022/12/20 05:50:00;;;;;;;0.7;0.7;;;;;;;10.9;100.0;100950;;;;
2022/12/20 05:51:00;;;;;;;0.7;0.7;;;;;;;10.9;100.0;100950;;;;
2022/12/20 05:52:01;;;;;;;0.7;0.7;;;;;;;10.8;100.0;100950;;;;
2022/12/20 05:53:06;;;;;;;0.7;0.7;;;;;;;10.8;100.0;100950;;;;
2022/12/20 05:54:00;;;;;;;0.7;0.7;;;;;;;10.7;100.0;100950;;;;
2022/12/20 05:55:00;;;;;;;0.7;0.7;;;;;;;10.7;100.0;100950;;;;
2022/12/20 05:56:00;;;;;;;0.7;0.7;;;;;;;10.8;100.0;100960;;;;
2022/12/20 05:57:00;;;;;;;0.7;0.7;;;;;;;10.8;100.0;100960;;;;
2022/12/20 05:58:00;;;;;;;0.7;0.7;;;;;;;10.8;100.0;100950;;;;
2022/12/20 05:59:00;;;;;;;0.7;0.7;;;;;;;10.8;100.0;100950;;;;
2022/12/20 06:00:00;;;;;;;0.7;0.7;;;;;;;10.8;100.0;100950;;;;
2022/12/20 06:01:01;;;;;;;0.7;0.7;;;;;;;10.8;100.0;100950;;;;
2022/12/20 06:02:00;;;;;;;0.8;0.8;;;;;;;10.8;100.0;100940;;;;
2022/12/20 06:03:00;;;;;;;0.8;0.8;;;;;;;10.8;100.0;100940;;;;
2022/12/20 06:04:00;;;;;;;0.8;0.8;;;;;;;10.8;100.0;100940;;;;
2022/12/20 06:05:01;;;;;;;0.8;0.8;;;;;;;10.8;100.0;100940;;;;
2022/12/20 06:06:00;;;;;;;0.8;0.8;;;;;;;10.8;100.0;100940;;;;
2022/12/20 06:07:00;;;;;;;0.8;0.8;;;;;;;10.8;100.0;100940;;;;
2022/12/20 06:08:00;;;;;;;0.8;0.8;;;;;;;10.8;100.0;100940;;;;
2022/12/20 06:09:00;;;;;;;0.8;0.8;;;;;;;10.8;100.0;100940;;;;
2022/12/20 06:10:00;;;;;;;0.8;0.8;;;;;;;10.8;100.0;100940;;;;
2022/12/20 06:11:02;;;;;;;0.8;0.8;;;;;;;10.8;100.0;100940;;;;
2022/12/20 06:12:00;;;;;;;0.8;0.8;;;;;;;10.8;100.0;100940;;;;
2022/12/20 06:13:01;;;;;;;0.8;0.8;;;;;;;10.8;100.0;100940;;;;
2022/12/20 06:14:00;;;;;;;0.8;0.8;;;;;;;10.8;100.0;100930;;;;
2022/12/20 06:15:00;;;;;;;0.8;0.8;;;;;;;10.8;100.0;100930;;;;
2022/12/20 06:16:00;;;;;;;0.8;0.8;;;;;;;10.8;100.0;100930;;;;
2022/12/20 06:17:00;;;;;;;0.8;0.8;;;;;;;10.8;100.0;100930;;;;
2022/12/20 06:18:00;;;;;;;0.8;0.8;;;;;;;10.8;100.0;100920;;;;
2022/12/20 06:19:01;;;;;;;0.8;0.8;;;;;;;10.8;100.0;100920;;;;
2022/12/20 06:20:00;;;;;;;0.8;0.8;;;;;;;10.7;100.0;100920;;;;
2022/12/20 06:21:00;;;;;;;0.8;0.8;;;;;;;10.7;100.0;100920;;;;
2022/12/20 06:22:00;;;;;;;0.7;0.7;;;;;;;10.7;100.0;100910;;;;
2022/12/20 06:23:00;;;;;;;0.7;0.7;;;;;;;10.7;100.0;100910;;;;
2022/12/20 06:24:00;;;;;;;0.7;0.7;;;;;;;10.7;100.0;100900;;;;
2022/12/20 06:25:00;;;;;;;0.7;0.7;;;;;;;10.7;100.0;100900;;;;
2022/12/20 06:26:00;;;;;;;0.7;0.7;;;;;;;10.7;100.0;100910;;;;
2022/12/20 06:27:01;;;;;;;0.7;0.7;;;;;;;10.7;100.0;100910;;;;
2022/12/20 06:28:00;;;;;;;0.7;0.7;;;;;;;10.6;100.0;100900;;;;
2022/12/20 06:29:01;;;;;;;0.7;0.7;;;;;;;10.6;100.0;100900;;;;
2022/12/20 06:30:00;;;;;;;0.7;0.7;;;;;;;10.7;100.0;100900;;;;
2022/12/20 06:31:00;;;;;;;0.7;0.7;;;;;;;10.7;100.0;100900;;;;
2022/12/20 06:32:00;;;;;;;0.7;0.7;;;;;;;10.6;100.0;100900;;;;
2022/12/20 06:33:00;;;;;;;0.7;0.7;;;;;;;10.6;100.0;100900;;;;
2022/12/20 06:34:00;;;;;;;0.7;0.7;;;;;;;10.5;100.0;100910;;;;
2022/12/20 06:35:00;;;;;;;0.7;0.7;;;;;;;10.5;100.0;100910;;;;